createdAt,value
2023-03-06T00:07:08.967Z,40.50
2023-03-06T00:17:14.812Z,38.90
2023-03-06T00:27:20.430Z,38.00
2023-03-06T00:37:27.227Z,38.70
2023-03-06T00:47:32.838Z,38.90
2023-03-06T00:57:38.855Z,44.10
2023-03-06T01:07:44.520Z,42.00
2023-03-06T01:17:53.111Z,46.50
2023-03-06T01:27:58.850Z,63.20
2023-03-06T01:38:04.657Z,46.10
2023-03-06T01:48:10.416Z,43.70
2023-03-06T01:58:19.553Z,51.60
2023-03-06T02:08:26.226Z,42.50
2023-03-06T02:18:32.355Z,43.50
2023-03-06T02:28:39.912Z,41.40
2023-03-06T02:38:49.990Z,39.30
2023-03-06T02:48:56.011Z,38.70
2023-03-06T02:59:01.722Z,39.80
2023-03-06T03:09:07.486Z,39.50
2023-03-06T03:19:13.514Z,35.20
2023-03-06T03:29:19.660Z,41.10
2023-03-06T03:39:25.525Z,33.60
2023-03-06T03:49:31.631Z,34.90
2023-03-06T03:59:37.289Z,35.60
2023-03-06T04:09:43.088Z,32.90
2023-03-06T04:19:49.131Z,31.50
2023-03-06T04:29:56.485Z,31.80
2023-03-06T04:40:02.141Z,32.30
2023-03-06T04:50:11.105Z,34.20
2023-03-06T05:00:19.968Z,30.80
2023-03-06T05:10:25.829Z,30.60
2023-03-06T05:20:32.260Z,34.50
2023-03-06T05:30:38.367Z,39.00
2023-03-06T05:40:45.993Z,40.60
2023-03-06T05:50:57.840Z,39.80
2023-03-06T06:01:09.400Z,36.40
2023-03-06T06:11:15.971Z,32.90
2023-03-06T06:21:22.046Z,28.30
2023-03-06T06:31:27.679Z,32.10
2023-03-06T06:41:53.103Z,38.90
2023-03-06T06:51:59.126Z,23.80
2023-03-06T07:02:05.868Z,29.50
2023-03-06T07:12:11.757Z,23.70
2023-03-06T07:22:17.437Z,22.50
2023-03-06T07:32:23.187Z,20.40
2023-03-06T07:42:29.299Z,17.60
2023-03-06T07:52:34.995Z,16.40
2023-03-06T08:02:42.162Z,16.60
2023-03-06T08:12:48.160Z,16.00
2023-03-06T08:22:53.879Z,14.80
2023-03-06T08:32:59.847Z,16.80
2023-03-06T08:43:06.404Z,13.50
2023-03-06T08:53:12.064Z,16.00
2023-03-06T09:03:17.653Z,13.10
2023-03-06T09:13:23.276Z,11.90
2023-03-06T09:23:29.012Z,11.40
2023-03-06T09:33:34.710Z,15.30
2023-03-06T09:43:42.664Z,17.00
2023-03-06T09:54:02.319Z,15.40
2023-03-06T10:04:20.565Z,18.00
2023-03-06T10:14:36.507Z,14.00
2023-03-06T10:24:52.217Z,17.00
2023-03-06T10:35:01.277Z,13.10
2023-03-06T10:45:15.327Z,11.80
2023-03-06T10:55:31.626Z,11.10
2023-03-06T11:05:38.010Z,11.50
2023-03-06T11:15:59.202Z,12.30
2023-03-06T11:26:23.820Z,9.90
2023-03-06T11:36:37.900Z,10.10
2023-03-06T11:46:50.595Z,8.40
2023-03-06T11:57:00.633Z,8.90
2023-03-06T12:07:22.447Z,9.00
2023-03-06T12:17:37.547Z,8.50
2023-03-06T12:27:51.002Z,8.10
2023-03-06T12:38:08.490Z,9.80
2023-03-06T12:48:20.194Z,10.00
2023-03-06T12:58:47.995Z,15.80
2023-03-06T13:09:21.005Z,9.30
2023-03-06T13:19:27.951Z,8.80
2023-03-06T13:30:14.828Z,7.40
2023-03-06T13:40:35.498Z,7.50
2023-03-06T13:50:43.519Z,6.80
2023-03-06T14:01:19.162Z,7.70
2023-03-06T14:11:25.820Z,8.20
2023-03-06T14:21:38.001Z,9.70
2023-03-06T14:31:45.305Z,9.40
2023-03-06T14:41:51.297Z,10.90
2023-03-06T14:52:00.558Z,12.20
2023-03-06T15:02:10.498Z,12.50
2023-03-06T15:12:38.708Z,14.00
2023-03-06T15:22:44.992Z,14.10
2023-03-06T15:32:50.742Z,11.70
2023-03-06T15:42:56.817Z,10.30
2023-03-06T15:53:02.706Z,10.70
2023-03-06T16:03:10.759Z,9.60
2023-03-06T16:13:20.379Z,9.70
2023-03-06T16:23:26.263Z,10.70
2023-03-06T16:33:32.120Z,9.80
2023-03-06T16:43:37.858Z,10.40
2023-03-06T16:53:43.917Z,9.10
2023-03-06T17:03:49.921Z,10.70
2023-03-06T17:13:55.797Z,10.40
2023-03-06T17:24:03.731Z,10.60
2023-03-06T17:34:09.567Z,11.30
2023-03-06T17:44:16.479Z,37.40
2023-03-06T17:54:22.380Z,25.50
2023-03-06T18:04:28.699Z,14.80
2023-03-06T18:14:34.627Z,24.40
2023-03-06T18:24:40.265Z,31.20
2023-03-06T18:34:46.286Z,36.40
2023-03-06T18:44:51.921Z,32.50
2023-03-06T18:54:57.576Z,35.60
2023-03-06T19:05:03.351Z,21.00
2023-03-06T19:15:11.315Z,40.70
2023-03-06T19:25:17.299Z,18.40
2023-03-06T19:35:23.507Z,17.50
2023-03-06T19:45:29.182Z,18.10
2023-03-06T19:55:34.853Z,16.20
2023-03-06T20:05:48.322Z,16.80
2023-03-06T20:15:54.171Z,15.00
2023-03-06T20:26:04.118Z,13.40
2023-03-06T20:36:15.272Z,11.40
2023-03-06T20:46:22.760Z,13.20
2023-03-06T20:56:30.297Z,9.90
2023-03-06T21:06:36.593Z,7.70
2023-03-06T21:16:42.679Z,7.30
2023-03-06T21:26:48.581Z,7.80
2023-03-06T21:36:54.217Z,7.20
2023-03-06T21:46:59.927Z,7.00
2023-03-06T21:57:05.901Z,4.90
2023-03-06T22:07:11.624Z,6.60
2023-03-06T22:17:17.529Z,7.40
2023-03-06T22:27:23.393Z,3.40
2023-03-06T22:37:29.081Z,4.20
2023-03-06T22:47:36.515Z,5.50
2023-03-06T22:57:44.502Z,6.20
2023-03-06T23:07:50.466Z,6.80
2023-03-06T23:17:56.226Z,8.30
2023-03-06T23:28:02.074Z,9.00
2023-03-06T23:38:07.758Z,9.00
2023-03-06T23:48:17.829Z,10.10
2023-03-06T23:58:23.785Z,10.60
